Time;durP1;ratioP1;P1;durP2;ratioP2;P2;SDS_P1;SDS_P2;PMS_P1;PMS_P2;Temp;Humidity;BMP_temperature;BMP_pressure;BME280_temperature;BME280_humidity;BME280_pressure;Samples;Min_cycle;Max_cycle;Signal;HPM_P1;HPM_P2
2022/12/11 00:01:20;;;;;;;60.40;38.17;;;;;;;1.72;100.00;100974.84;5034291;28;20132;-64
2022/12/11 00:03:47;;;;;;;61.95;37.20;;;;;;;1.27;100.00;100899.34;5034154;28;20120;-62
2022/12/11 00:06:14;;;;;;;65.47;39.38;;;;;;;1.73;100.00;100975.69;5034241;28;20029;-63
2022/12/11 00:08:39;;;;;;;66.72;39.00;;;;;;;1.75;100.00;100979.19;5017052;28;20039;-62
2022/12/11 00:11:07;;;;;;;63.22;37.45;;;;;;;1.73;100.00;100976.56;5016378;28;20116;-62
2022/12/11 00:13:33;;;;;;;60.05;39.95;;;;;;;1.72;100.00;100982.63;5034261;28;20075;-65
2022/12/11 00:15:58;;;;;;;62.70;38.33;;;;;;;1.39;100.00;100914.97;5033962;28;20068;-65
2022/12/11 00:18:24;;;;;;;60.20;36.35;;;;;;;1.33;100.00;100908.03;5033840;28;20361;-63
2022/12/11 00:20:49;;;;;;;63.03;37.63;;;;;;;1.31;100.00;100891.59;5034350;28;20037;-62
2022/12/11 00:23:14;;;;;;;57.13;37.42;;;;;;;1.34;100.00;100895.94;5016092;28;20034;-62
2022/12/11 00:25:42;;;;;;;61.58;37.70;;;;;;;1.47;100.00;100913.28;5032563;28;20037;-62
2022/12/11 00:28:08;;;;;;;58.05;38.05;;;;;;;1.43;100.00;100909.78;5033657;28;20128;-62
2022/12/11 00:30:33;;;;;;;56.38;36.88;;;;;;;1.75;100.00;100967.06;5033773;28;20550;-61
2022/12/11 00:32:58;;;;;;;58.08;39.28;;;;;;;1.73;100.00;100967.91;5033599;28;20079;-62
2022/12/11 00:35:23;;;;;;;63.85;38.70;;;;;;;1.36;100.00;100895.06;5033711;28;20057;-63
2022/12/11 00:37:49;;;;;;;57.05;38.15;;;;;;;1.68;100.00;100955.78;5033663;28;20061;-63
2022/12/11 00:40:14;;;;;;;52.58;36.72;;;;;;;1.28;100.00;100888.09;5033096;28;20057;-64
2022/12/11 00:42:39;;;;;;;52.85;36.60;;;;;;;1.35;100.00;100901.09;5032538;28;20049;-64
2022/12/11 00:45:05;;;;;;;55.05;36.67;;;;;;;1.51;100.00;100921.09;5033255;28;20037;-65
2022/12/11 00:47:31;;;;;;;56.65;36.97;;;;;;;1.76;100.00;100960.13;5033486;28;20057;-65
2022/12/11 00:49:56;;;;;;;55.47;37.25;;;;;;;1.80;100.00;100962.75;5033204;28;20117;-65
2022/12/11 00:52:21;;;;;;;54.60;37.80;;;;;;;1.78;100.00;100964.47;5033476;28;20079;-65
2022/12/11 00:54:47;;;;;;;52.83;36.30;;;;;;;1.74;100.00;100951.47;5033212;28;20120;-63
2022/12/11 00:57:12;;;;;;;50.83;36.60;;;;;;;1.78;100.00;100958.44;5031876;28;20116;-62
2022/12/11 00:59:37;;;;;;;50.40;36.70;;;;;;;1.79;100.00;100952.38;5033357;28;20114;-63
2022/12/11 01:02:03;;;;;;;58.40;37.78;;;;;;;1.81;100.00;100950.66;5033068;28;20625;-64
2022/12/11 01:04:28;;;;;;;56.25;36.33;;;;;;;1.69;100.00;100939.34;5033079;28;20049;-65
2022/12/11 01:06:53;;;;;;;48.65;34.70;;;;;;;1.35;100.00;100879.50;5033474;28;20033;-65
2022/12/11 01:12:03;;;;;;;50.58;35.53;;;;;;;1.23;100.00;100889.78;5033138;28;20542;-60
2022/12/11 01:14:28;;;;;;;50.25;35.28;;;;;;;0.86;100.00;100839.44;5033030;28;20041;-63
2022/12/11 01:16:54;;;;;;;49.42;34.47;;;;;;;1.55;100.00;100959.16;5031694;28;20483;-64
2022/12/11 01:19:19;;;;;;;47.67;35.90;;;;;;;1.55;100.00;100953.97;5032795;28;20125;-63
2022/12/11 01:21:44;;;;;;;51.00;34.75;;;;;;;1.56;100.00;100953.13;5015111;28;20029;-62
2022/12/11 01:24:10;;;;;;;51.63;34.67;;;;;;;1.37;100.00;100930.50;5032317;28;20033;-64
2022/12/11 01:26:35;;;;;;;46.65;33.25;;;;;;;1.06;100.00;100881.91;5033170;28;20464;-62
2022/12/11 01:29:00;;;;;;;48.20;32.78;;;;;;;1.48;100.00;100940.97;5032783;28;20524;-63
2022/12/11 01:31:26;;;;;;;48.05;33.63;;;;;;;1.21;100.00;100886.31;5032599;28;20034;-61
2022/12/11 01:33:53;;;;;;;42.33;31.42;;;;;;;1.58;100.00;100958.31;5015115;28;20541;-64
2022/12/11 01:36:20;;;;;;;43.80;30.83;;;;;;;1.58;100.00;100964.38;5011194;28;20116;-62
2022/12/11 01:38:46;;;;;;;43.35;29.83;;;;;;;1.51;100.00;100961.72;5012502;28;20163;-63
2022/12/11 01:41:12;;;;;;;48.45;32.47;;;;;;;1.45;100.00;100970.34;5012830;28;20049;-62
2022/12/11 01:43:56;;;;;;;45.60;31.27;;;;;;;1.36;100.00;100972.88;5012632;28;20038;-65
2022/12/11 01:46:22;;;;;;;46.60;31.45;;;;;;;0.98;100.00;100896.56;5011523;28;20041;-64
2022/12/11 01:48:47;;;;;;;45.83;29.20;;;;;;;1.00;100.00;100902.59;5027986;28;20030;-65
2022/12/11 01:51:13;;;;;;;44.38;30.67;;;;;;;1.27;100.00;100946.88;5011531;28;20038;-61
2022/12/11 01:53:41;;;;;;;45.90;30.48;;;;;;;1.23;100.00;100937.34;5011308;28;20076;-63
2022/12/11 01:56:07;;;;;;;43.30;30.05;;;;;;;1.25;100.00;100942.53;5011477;28;20596;-61
2022/12/11 01:58:34;;;;;;;41.20;29.67;;;;;;;1.23;100.00;100931.28;5011633;28;20112;-62
2022/12/11 02:01:00;;;;;;;44.78;29.80;;;;;;;1.00;100.00;100884.47;4994667;28;20113;-63
2022/12/11 02:03:25;;;;;;;46.58;30.65;;;;;;;1.44;100.00;100958.22;5011160;28;20564;-63
2022/12/11 02:05:51;;;;;;;46.08;30.50;;;;;;;1.34;100.00;100933.09;5011041;28;20030;-61
2022/12/11 02:08:16;;;;;;;43.67;29.98;;;;;;;1.49;100.00;100950.50;5012527;28;20116;-62
2022/12/11 02:10:49;;;;;;;43.42;29.10;;;;;;;1.53;100.00;100966.06;5011365;28;20034;-63
2022/12/11 02:13:22;;;;;;;43.90;28.77;;;;;;;1.51;100.00;100947.03;5011169;28;20482;-64
2022/12/11 02:15:51;;;;;;;48.03;30.35;;;;;;;1.48;100.00;100952.22;5010993;28;20036;-60
2022/12/11 02:18:19;;;;;;;46.30;30.20;;;;;;;1.52;100.00;100964.31;5012155;28;20436;-64
2022/12/11 02:21:06;;;;;;;45.88;30.05;;;;;;;1.53;100.00;100960.88;5011658;28;20061;-62
2022/12/11 02:23:47;;;;;;;43.78;29.25;;;;;;;1.14;100.00;100906.16;5027330;28;20484;-62
2022/12/11 02:26:19;;;;;;;;;;;;;;;1.50;100.00;100957.41;5011488;28;20026;-64
2022/12/11 02:28:45;;;;;;;;;;;;;;;1.48;100.00;100953.94;5012540;28;19913;-62
2022/12/11 02:31:22;;;;;;;44.03;29.75;;;;;;;1.50;100.00;100950.50;5011228;28;20019;-61
2022/12/11 02:34:12;;;;;;;47.20;28.67;;;;;;;1.51;100.00;100952.22;5010966;28;20049;-65
2022/12/11 02:36:42;;;;;;;47.63;29.73;;;;;;;1.47;100.00;100947.00;5027006;28;20057;-63
2022/12/11 02:39:11;;;;;;;46.58;28.65;;;;;;;1.03;100.00;100868.94;5011814;28;20034;-64
2022/12/11 02:41:38;;;;;;;45.40;28.63;;;;;;;1.50;100.00;100941.84;5010989;28;20432;-61
2022/12/11 02:44:04;;;;;;;49.72;30.30;;;;;;;1.47;100.00;100952.19;5010808;28;20060;-65
2022/12/11 02:46:30;;;;;;;55.05;31.88;;;;;;;1.02;100.00;100869.81;5012205;28;20548;-64
2022/12/11 02:48:56;;;;;;;49.72;31.05;;;;;;;1.03;100.00;100872.38;5012066;28;20037;-63
2022/12/11 02:51:25;;;;;;;51.22;31.15;;;;;;;1.17;100.00;100876.81;5011830;28;20065;-65
2022/12/11 02:53:53;;;;;;;55.35;32.80;;;;;;;1.41;100.00;100927.09;5026923;28;20053;-63
2022/12/11 02:56:27;;;;;;;47.65;30.15;;;;;;;1.18;100.00;100884.59;5010670;28;20540;-67
2022/12/11 02:59:00;;;;;;;42.92;28.52;;;;;;;1.14;100.00;100877.63;5010215;28;20512;-64
2022/12/11 03:01:26;;;;;;;49.83;30.75;;;;;;;1.46;100.00;100920.19;5010693;28;20025;-67
2022/12/11 03:03:52;;;;;;;45.38;29.98;;;;;;;1.31;100.00;100894.19;5011377;28;20046;-66
2022/12/11 03:06:19;;;;;;;46.95;29.55;;;;;;;1.05;100.00;100849.09;5011057;28;20497;-64
2022/12/11 03:08:45;;;;;;;48.00;30.20;;;;;;;1.05;100.00;100851.69;5012903;28;20076;-64
2022/12/11 03:11:11;;;;;;;50.42;30.83;;;;;;;1.47;100.00;100913.28;5015599;28;20069;-66
2022/12/11 03:13:38;;;;;;;49.42;31.65;;;;;;;1.05;100.00;100851.69;5012915;28;20125;-65
2022/12/11 03:16:06;;;;;;;58.35;31.40;;;;;;;1.40;100.00;100930.53;5013866;28;20026;-66
2022/12/11 03:18:39;;;;;;;55.28;32.70;;;;;;;1.18;100.00;100870.75;5013815;28;20026;-66
2022/12/11 03:21:08;;;;;;;53.35;32.05;;;;;;;1.40;100.00;100916.72;5015378;28;20030;-66
2022/12/11 03:23:42;;;;;;;53.38;30.70;;;;;;;1.33;100.00;100915.81;5013872;28;20033;-65
2022/12/11 03:26:11;;;;;;;48.88;31.23;;;;;;;0.68;100.00;100792.69;5013758;28;20030;-67
2022/12/11 03:28:48;;;;;;;52.33;30.70;;;;;;;1.31;100.00;100907.16;5013626;28;20378;-65
2022/12/11 03:31:22;;;;;;;41.67;28.80;;;;;;;1.05;100.00;100846.50;5014743;28;20072;-65
2022/12/11 03:33:48;;;;;;;48.83;30.85;;;;;;;1.43;100.00;100909.78;5014713;28;20069;-65
2022/12/11 03:36:17;;;;;;;52.67;30.83;;;;;;;1.42;100.00;100891.66;5030726;28;20501;-66
2022/12/11 03:38:48;;;;;;;46.60;28.08;;;;;;;1.43;100.00;100906.38;5016583;28;20041;-65
2022/12/11 03:41:15;;;;;;;50.13;30.83;;;;;;;0.92;100.00;100827.41;5016853;28;20518;-65
2022/12/11 03:43:40;;;;;;;45.47;28.92;;;;;;;1.33;100.00;100901.97;5016599;28;20029;-67
2022/12/11 03:46:06;;;;;;;43.33;28.52;;;;;;;1.24;100.00;100881.16;5033406;28;20440;-64
2022/12/11 03:48:35;;;;;;;48.28;29.50;;;;;;;1.36;100.00;100899.38;5033293;28;20037;-64
2022/12/11 03:51:04;;;;;;;46.38;27.15;;;;;;;1.03;100.00;100848.19;5033371;28;20033;-65
2022/12/11 03:53:31;;;;;;;52.90;29.33;;;;;;;1.34;100.00;100901.13;5034525;28;20156;-64
2022/12/11 03:55:58;;;;;;;53.65;31.20;;;;;;;1.34;100.00;100901.13;5016698;28;20072;-65
2022/12/11 03:58:23;;;;;;;47.10;28.42;;;;;;;1.07;100.00;100845.66;5032697;28;20030;-65
2022/12/11 04:00:49;;;;;;;45.72;28.20;;;;;;;1.11;100.00;100843.91;5034284;28;20049;-64
2022/12/11 04:03:16;;;;;;;46.50;30.40;;;;;;;1.06;100.00;100828.34;5034070;28;20033;-66
2022/12/11 04:05:49;;;;;;;46.42;27.48;;;;;;;1.46;100.00;100912.41;5034093;28;20029;-66
2022/12/11 04:08:17;;;;;;;44.83;28.17;;;;;;;1.49;100.00;100902.03;5033961;28;20025;-65
2022/12/11 04:10:42;;;;;;;41.90;26.92;;;;;;;1.28;100.00;100862.19;5033732;28;20037;-66
2022/12/11 04:13:08;;;;;;;39.80;27.65;;;;;;;1.45;100.00;100905.50;5033732;28;20120;-63
2022/12/11 04:15:34;;;;;;;39.88;27.05;;;;;;;1.50;100.00;100918.47;5016244;28;20361;-66
2022/12/11 04:26:17;;;;;;;37.38;23.45;;;;;;;1.27;100.00;100866.50;5033791;28;20511;-66
2022/12/11 04:28:45;;;;;;;;;;;;;;;1.39;100.00;100887.31;5016068;28;20041;-66
2022/12/11 04:31:15;;;;;;;33.53;21.40;;;;;;;1.36;100.00;100889.88;5032415;28;19913;-64
2022/12/11 04:33:40;;;;;;;29.88;20.88;;;;;;;1.00;100.00;100817.94;5015613;28;20467;-66
2022/12/11 04:36:06;;;;;;;31.50;20.75;;;;;;;1.02;100.00;100823.16;5033621;28;20054;-64
2022/12/11 04:38:32;;;;;;;31.33;20.58;;;;;;;1.20;100.00;100871.66;5031779;28;20091;-63
2022/12/11 04:41:10;;;;;;;33.50;21.55;;;;;;;1.27;100.00;100889.84;5033415;28;20124;-66
2022/12/11 04:43:36;;;;;;;31.75;21.25;;;;;;;0.93;100.00;100830.88;5033152;28;20041;-65
2022/12/11 04:46:07;;;;;;;34.20;23.98;;;;;;;1.29;100.00;100892.41;5033152;28;20108;-67
2022/12/11 04:48:33;;;;;;;33.75;22.95;;;;;;;1.27;100.00;100899.34;5033061;28;20033;-66
2022/12/11 04:50:58;;;;;;;38.67;24.88;;;;;;;1.27;100.00;100894.16;5033307;28;20040;-64
2022/12/11 04:53:24;;;;;;;34.35;22.85;;;;;;;0.92;100.00;100834.31;5033295;28;20038;-66
2022/12/11 04:55:50;;;;;;;33.50;21.70;;;;;;;1.27;100.00;100902.78;5033337;28;20107;-64
2022/12/11 04:58:15;;;;;;;31.05;20.27;;;;;;;1.23;100.00;100900.16;5015549;28;20465;-65
2022/12/11 05:00:41;;;;;;;33.72;21.05;;;;;;;1.23;100.00;100892.38;5035097;28;20080;-65
2022/12/11 05:03:06;;;;;;;29.92;21.17;;;;;;;1.13;100.00;100884.56;5020352;28;20059;-66
2022/12/11 05:05:32;;;;;;;35.05;22.13;;;;;;;1.23;100.00;100892.38;5026228;28;20527;-67
2022/12/11 05:07:57;;;;;;;31.17;20.55;;;;;;;0.78;100.00;100816.09;5026112;28;20519;-66
2022/12/11 05:10:22;;;;;;;27.60;18.85;;;;;;;1.17;100.00;100887.19;5037671;28;20145;-66
2022/12/11 05:12:48;;;;;;;30.10;19.67;;;;;;;1.17;100.00;100889.78;5014634;28;20033;-65
2022/12/11 05:15:13;;;;;;;27.15;17.67;;;;;;;0.75;100.00;100829.00;5032376;28;20036;-65
2022/12/11 05:17:38;;;;;;;30.77;18.15;;;;;;;1.04;100.00;100878.44;5015127;28;20037;-63
2022/12/11 05:20:04;;;;;;;26.30;17.25;;;;;;;1.13;100.00;100897.53;5032119;28;20471;-64
2022/12/11 05:22:30;;;;;;;29.25;18.25;;;;;;;0.78;100.00;100834.22;5014453;28;20044;-67
2022/12/11 05:24:55;;;;;;;26.80;16.70;;;;;;;0.82;100.00;100832.50;5014745;28;20473;-64
2022/12/11 05:27:20;;;;;;;29.65;16.27;;;;;;;0.71;100.00;100813.41;5032599;28;20041;-65
2022/12/11 05:29:46;;;;;;;25.60;17.13;;;;;;;0.73;100.00;100816.91;5014209;28;20344;-65
2022/12/11 05:32:11;;;;;;;25.33;16.95;;;;;;;1.01;100.00;100860.28;5032254;28;20504;-66
2022/12/11 05:34:37;;;;;;;25.65;17.00;;;;;;;1.12;100.00;100885.41;5014651;28;20422;-66
2022/12/11 05:37:02;;;;;;;25.70;16.70;;;;;;;1.04;100.00;100862.91;5014976;28;20041;-62
2022/12/11 05:39:27;;;;;;;22.98;16.20;;;;;;;0.67;100.00;100803.91;5032317;28;20489;-65
2022/12/11 05:41:53;;;;;;;22.73;15.65;;;;;;;0.87;100.00;100833.41;5032308;28;20120;-65
2022/12/11 05:44:18;;;;;;;23.83;15.63;;;;;;;1.04;100.00;100870.69;5032219;28;20405;-64
2022/12/11 05:46:44;;;;;;;26.02;16.38;;;;;;;1.00;100.00;100871.50;5031953;28;20033;-63
2022/12/11 05:49:09;;;;;;;24.25;17.08;;;;;;;1.06;100.00;100874.13;5014788;28;20025;-62
2022/12/11 05:51:35;;;;;;;24.25;16.35;;;;;;;0.93;100.00;100855.06;5014489;28;20538;-66
2022/12/11 05:54:01;;;;;;;24.13;16.33;;;;;;;1.05;100.00;100890.56;5014716;28;20041;-65
2022/12/11 05:56:29;;;;;;;22.38;15.90;;;;;;;0.97;100.00;100864.56;5032774;28;20037;-66
2022/12/11 05:58:55;;;;;;;24.13;16.40;;;;;;;0.82;100.00;100846.31;5034825;28;20075;-63
2022/12/11 06:01:25;;;;;;;24.08;16.48;;;;;;;0.70;100.00;100816.91;5032486;28;20064;-66
2022/12/11 06:03:50;;;;;;;22.83;15.98;;;;;;;0.75;100.00;100829.00;5032584;28;20053;-66
2022/12/11 06:06:16;;;;;;;22.77;17.10;;;;;;;0.61;100.00;100799.56;5032481;28;20044;-64
2022/12/11 06:08:42;;;;;;;25.92;17.75;;;;;;;0.57;100.00;100790.91;5032068;28;20132;-66
2022/12/11 06:11:07;;;;;;;26.35;17.25;;;;;;;0.65;100.00;100811.66;5032055;28;20064;-64
2022/12/11 06:13:33;;;;;;;23.55;16.23;;;;;;;0.53;100.00;100799.50;5031842;28;20034;-63
2022/12/11 06:16:02;;;;;;;23.55;15.80;;;;;;;0.75;100.00;100833.31;5031841;28;20033;-64
2022/12/11 06:18:28;;;;;;;23.38;15.50;;;;;;;0.62;100.00;100819.41;4998157;28;20042;-64
2022/12/11 06:20:53;;;;;;;21.38;15.50;;;;;;;0.57;100.00;100821.97;5014242;28;20082;-66
2022/12/11 06:23:18;;;;;;;25.67;16.98;;;;;;;0.42;100.00;100806.31;5031964;28;20055;-66
2022/12/11 06:25:44;;;;;;;23.42;16.83;;;;;;;0.97;100.00;100879.25;5031646;28;20026;-64
2022/12/11 06:28:09;;;;;;;25.13;16.90;;;;;;;0.63;100.00;100822.88;5031718;28;20033;-66
2022/12/11 06:30:35;;;;;;;27.05;17.17;;;;;;;0.67;100.00;100829.81;5031429;28;20029;-65
2022/12/11 06:33:00;;;;;;;27.88;18.35;;;;;;;0.75;100.00;100843.69;5031813;28;20042;-65
2022/12/11 06:35:25;;;;;;;27.55;18.00;;;;;;;0.98;100.00;100892.25;5031577;28;20053;-67
2022/12/11 06:37:50;;;;;;;24.52;16.80;;;;;;;0.56;100.00;100821.94;5031195;28;20041;-66
2022/12/11 06:40:16;;;;;;;28.00;16.85;;;;;;;0.63;100.00;100833.22;5031571;28;20037;-65
2022/12/11 06:42:41;;;;;;;27.30;18.45;;;;;;;0.83;100.00;100880.88;5034631;28;20030;-67
2022/12/11 06:45:07;;;;;;;30.02;18.30;;;;;;;0.48;100.00;100829.66;5017442;28;20362;-68
2022/12/11 06:47:32;;;;;;;26.23;18.83;;;;;;;0.36;100.00;100826.97;5035523;28;20511;-62
2022/12/11 06:49:58;;;;;;;31.58;19.45;;;;;;;0.58;100.00;100878.09;5035434;28;20041;-66
2022/12/11 06:52:25;;;;;;;28.73;18.63;;;;;;;0.15;100.00;100813.84;5035455;28;20486;-67
2022/12/11 06:54:50;;;;;;;29.73;18.88;;;;;;;0.39;100.00;100860.66;5017582;28;20025;-67
2022/12/11 06:57:16;;;;;;;32.83;19.80;;;;;;;0.41;100.00;100869.31;5034947;28;20033;-65
2022/12/11 06:59:42;;;;;;;33.42;21.40;;;;;;;0.48;100.00;100894.41;5017327;28;20041;-65
2022/12/11 07:02:12;;;;;;;31.95;20.58;;;;;;;0.45;100.00;100872.78;5017289;28;20030;-65
2022/12/11 07:04:37;;;;;;;37.85;21.90;;;;;;;0.46;100.00;100888.34;5035141;28;20164;-63
2022/12/11 07:07:03;;;;;;;36.60;21.88;;;;;;;0.38;100.00;100866.69;5034965;28;20461;-66
2022/12/11 07:09:28;;;;;;;33.75;20.23;;;;;;;0.44;100.00;100866.75;5034982;28;20064;-66
2022/12/11 07:11:53;;;;;;;39.95;22.08;;;;;;;0.52;100.00;100878.06;5016750;28;20033;-65
2022/12/11 07:14:19;;;;;;;36.70;21.55;;;;;;;0.51;100.00;100878.91;5034668;28;20152;-65
2022/12/11 07:16:44;;;;;;;41.17;23.38;;;;;;;0.14;100.00;100822.47;5034737;28;20036;-63
2022/12/11 07:19:09;;;;;;;38.17;21.95;;;;;;;0.08;100.00;100806.88;5034651;28;20046;-66
2022/12/11 07:21:35;;;;;;;38.65;23.25;;;;;;;0.47;100.00;100871.06;5016874;28;20071;-64
2022/12/11 07:24:00;;;;;;;39.88;22.77;;;;;;;-0.05;100.00;100799.84;5034551;28;20342;-65
2022/12/11 07:26:26;;;;;;;38.67;21.83;;;;;;;-0.11;100.00;100813.59;5034344;28;20439;-64
2022/12/11 07:28:51;;;;;;;39.42;22.63;;;;;;;0.22;100.00;100884.66;5034299;28;20073;-64
2022/12/11 07:31:19;;;;;;;37.28;21.40;;;;;;;-0.04;100.00;100849.03;5034332;28;20128;-64
2022/12/11 07:33:46;;;;;;;39.33;21.70;;;;;;;-0.35;100.00;100807.31;5016581;28;20041;-63
2022/12/11 07:36:12;;;;;;;36.63;20.63;;;;;;;0.05;100.00;100902.59;5015750;28;20096;-64
2022/12/11 07:38:38;;;;;;;40.40;21.77;;;;;;;-0.49;100.00;100806.25;5033305;28;20515;-64
2022/12/11 07:41:05;;;;;;;43.60;23.88;;;;;;;-0.13;100.00;100871.34;5034349;28;20065;-65
2022/12/11 07:43:31;;;;;;;35.30;21.10;;;;;;;-0.17;100.00;100877.31;5015600;28;20040;-66
2022/12/11 07:46:09;;;;;;;37.78;21.38;;;;;;;-0.36;100.00;100858.16;5033731;28;20060;-64
2022/12/11 07:48:35;;;;;;;40.92;23.00;;;;;;;-0.24;100.00;100896.22;5016024;28;20591;-65
2022/12/11 07:51:16;;;;;;;44.58;21.13;;;;;;;-0.26;100.00;100903.94;5013441;28;20434;-65
2022/12/11 07:53:47;;;;;;;42.20;22.17;;;;;;;-0.30;100.00;100901.31;5033906;28;20037;-66
2022/12/11 07:56:13;;;;;;;39.17;21.02;;;;;;;-0.69;100.00;100843.06;5016641;28;20041;-66
2022/12/11 07:58:38;;;;;;;42.42;22.95;;;;;;;-0.35;100.00;100911.59;5016309;28;20029;-64
2022/12/11 08:01:18;;;;;;;42.85;23.08;;;;;;;-0.40;100.00;100904.63;5013869;28;20048;-64
2022/12/11 08:03:44;;;;;;;44.10;24.45;;;;;;;-0.41;100.00;100905.50;5033461;28;20484;-64
2022/12/11 08:06:09;;;;;;;46.20;24.80;;;;;;;-0.25;100.00;100923.81;5033719;28;20052;-66
2022/12/11 08:08:35;;;;;;;45.33;23.83;;;;;;;-0.53;100.00;100849.31;5015112;28;20571;-66
2022/12/11 08:11:02;;;;;;;41.05;22.92;;;;;;;-0.51;100.00;100831.22;5015425;28;20493;-65
2022/12/11 08:13:27;;;;;;;43.75;23.50;;;;;;;-0.19;100.00;100879.91;5012158;28;20049;-64
2022/12/11 08:15:53;;;;;;;43.80;22.70;;;;;;;-0.34;100.00;100846.09;5009506;28;20092;-64
2022/12/11 08:18:18;;;;;;;40.33;22.83;;;;;;;0.11;100.00;100901.81;4996082;28;20030;-63
2022/12/11 08:20:43;;;;;;;44.00;23.15;;;;;;;0.17;100.00;100907.91;5013436;28;20038;-65
2022/12/11 08:23:09;;;;;;;43.22;22.92;;;;;;;-0.23;100.00;100835.84;4996015;28;20044;-64
2022/12/11 08:25:34;;;;;;;41.03;23.25;;;;;;;0.25;100.00;100908.84;5009849;28;20045;-66
2022/12/11 08:28:00;;;;;;;44.13;23.35;;;;;;;0.29;100.00;100908.03;4999279;28;20041;-67
2022/12/11 08:30:25;;;;;;;41.63;23.10;;;;;;;-0.39;100.00;100777.06;5033007;28;20033;-67
2022/12/11 08:32:50;;;;;;;42.67;24.30;;;;;;;0.09;100.00;100844.81;5014829;28;20033;-65
2022/12/11 08:35:16;;;;;;;39.95;23.17;;;;;;;0.54;100.00;100903.97;5014926;28;20075;-65
2022/12/11 08:37:41;;;;;;;41.28;22.65;;;;;;;0.61;100.00;100903.16;5015220;28;20041;-66
2022/12/11 08:40:07;;;;;;;40.08;22.67;;;;;;;0.52;100.00;100885.81;5033267;28;20033;-64
2022/12/11 08:42:33;;;;;;;36.40;22.90;;;;;;;0.62;100.00;100883.28;5014877;28;20485;-63
2022/12/11 08:44:59;;;;;;;40.55;24.00;;;;;;;0.33;100.00;100834.72;5015223;28;20037;-66
2022/12/11 08:47:24;;;;;;;38.97;21.67;;;;;;;0.79;100.00;100900.72;5015144;28;20044;-66
2022/12/11 08:49:49;;;;;;;36.15;20.65;;;;;;;0.69;100.00;100870.41;5032522;28;20052;-68
2022/12/11 08:52:15;;;;;;;33.25;21.77;;;;;;;0.58;100.00;100846.16;5033133;28;20030;-66
2022/12/11 08:54:40;;;;;;;36.85;20.70;;;;;;;1.00;100.00;100900.00;5033574;28;20041;-67
2022/12/11 08:57:06;;;;;;;36.15;22.55;;;;;;;1.07;100.00;100901.81;5015434;28;20045;-66
2022/12/11 08:59:31;;;;;;;33.60;20.23;;;;;;;1.10;100.00;100896.63;5032894;28;20473;-64
2022/12/11 09:01:56;;;;;;;30.85;20.98;;;;;;;1.11;100.00;100901.81;5033012;28;20476;-64
2022/12/11 09:04:22;;;;;;;31.00;20.30;;;;;;;0.79;100.00;100837.69;5031983;28;20480;-66
2022/12/11 09:06:48;;;;;;;30.25;20.35;;;;;;;0.74;100.00;100824.69;5032937;28;20033;-66
2022/12/11 09:09:13;;;;;;;34.97;20.25;;;;;;;1.22;100.00;100888.94;5033058;28;20037;-65
2022/12/11 09:11:39;;;;;;;32.70;20.70;;;;;;;0.96;100.00;100836.06;5015193;28;20388;-66
2022/12/11 09:14:05;;;;;;;36.17;21.33;;;;;;;1.25;100.00;100881.19;5032558;28;20029;-66
2022/12/11 09:16:30;;;;;;;33.38;19.70;;;;;;;1.43;100.00;100901.16;5032662;28;20514;-65
2022/12/11 09:18:57;;;;;;;32.45;21.20;;;;;;;1.45;100.00;100928.84;5032542;28;20112;-65
2022/12/11 09:21:26;;;;;;;37.72;21.92;;;;;;;1.43;100.00;100883.00;5014953;28;20436;-64
2022/12/11 09:23:53;;;;;;;36.50;21.20;;;;;;;1.14;100.00;100828.38;5032496;28;20064;-64
2022/12/11 09:26:19;;;;;;;33.72;22.13;;;;;;;1.59;100.00;100902.97;5014942;28;20033;-67
2022/12/11 09:28:45;;;;;;;33.75;21.42;;;;;;;1.22;100.00;100825.84;5014115;28;20481;-63
2022/12/11 09:31:19;;;;;;;33.42;22.70;;;;;;;1.67;100.00;100903.88;5030851;28;20033;-66
2022/12/11 09:33:44;;;;;;;34.95;22.20;;;;;;;1.59;100.00;100882.22;5013928;28;20041;-66
2022/12/11 09:36:10;;;;;;;36.53;23.77;;;;;;;1.64;100.00;100881.38;5031836;28;20054;-65
2022/12/11 09:38:36;;;;;;;38.75;24.33;;;;;;;1.42;100.00;100830.28;5031673;28;20037;-64
2022/12/11 09:41:19;;;;;;;36.65;23.75;;;;;;;1.88;100.00;100906.56;5031453;28;20407;-62
2022/12/11 09:44:29;;;;;;;32.83;22.05;;;;;;;1.96;100.00;100898.78;4998188;28;20033;-66
2022/12/11 09:46:55;;;;;;;34.35;21.63;;;;;;;1.88;100.00;100879.72;5000554;28;20394;-67
2022/12/11 09:49:37;;;;;;;39.40;24.45;;;;;;;2.08;100.00;100901.44;5014889;28;20040;-65
2022/12/11 09:52:21;;;;;;;35.40;22.83;;;;;;;2.12;100.00;100906.66;5031851;28;20037;-61
2022/12/11 09:54:56;;;;;;;34.95;22.52;;;;;;;2.19;100.00;100910.09;5031992;28;20125;-62
2022/12/11 09:57:55;;;;;;;37.65;22.17;;;;;;;2.29;100.00;100898.91;5014044;28;20037;-61
2022/12/11 10:00:31;;;;;;;31.48;21.10;;;;;;;2.38;100.00;100911.03;5031086;28;20064;-61
2022/12/11 10:03:14;;;;;;;36.40;22.33;;;;;;;2.41;100.00;100900.66;5014069;28;20030;-61
2022/12/11 10:05:46;;;;;;;27.98;20.27;;;;;;;2.45;100.00;100899.78;5031043;28;20037;-63
2022/12/11 10:08:19;;;;;;;32.25;20.52;;;;;;;2.37;100.00;100880.72;5031011;28;20033;-61
2022/12/11 10:10:56;;;;;;;33.88;21.65;;;;;;;2.40;100.00;100891.09;5014108;28;20025;-62
2022/12/11 10:13:44;;;;;;;34.47;23.10;;;;;;;2.09;100.00;100831.34;5031466;28;20025;-63
2022/12/11 10:16:15;;;;;;;32.97;21.10;;;;;;;2.48;100.00;100900.66;5016452;28;20029;-63
2022/12/11 10:18:41;;;;;;;33.38;22.35;;;;;;;2.09;100.00;100835.66;5036155;28;20083;-63
2022/12/11 10:21:06;;;;;;;30.75;20.52;;;;;;;2.42;100.00;100886.81;5036057;28;20037;-62
2022/12/11 10:23:41;;;;;;;30.27;20.13;;;;;;;2.06;100.00;100835.66;5035810;28;20033;-62
2022/12/11 10:26:15;;;;;;;34.72;22.27;;;;;;;2.42;100.00;100897.19;5018059;28;20026;-62
2022/12/11 10:28:40;;;;;;;32.88;22.08;;;;;;;2.48;100.00;100890.25;5018130;28;20025;-62
2022/12/11 10:31:14;;;;;;;31.27;20.88;;;;;;;2.02;100.00;100811.41;5035848;28;20446;-62
2022/12/11 10:33:42;;;;;;;33.10;21.42;;;;;;;2.49;100.00;100889.41;5035797;28;20116;-62
2022/12/11 10:36:09;;;;;;;32.83;21.10;;;;;;;2.11;100.00;100821.81;5035388;28;20150;-62
2022/12/11 10:38:42;;;;;;;36.92;22.88;;;;;;;2.05;100.00;100815.75;5017531;28;20041;-61
2022/12/11 10:41:13;;;;;;;32.33;20.92;;;;;;;2.00;100.00;100810.56;5035695;28;20033;-62
2022/12/11 10:43:42;;;;;;;;;;;;;;;2.51;100.00;100877.25;5018018;28;20033;-61
2022/12/11 10:46:14;;;;;;;35.88;22.08;;;;;;;2.52;100.00;100894.59;5035430;28;20291;-61
2022/12/11 10:48:54;;;;;;;36.63;22.08;;;;;;;2.51;100.00;100877.25;5035739;28;20033;-63
2022/12/11 10:51:38;;;;;;;36.80;22.52;;;;;;;2.12;100.00;100813.19;5035551;28;20044;-61
2022/12/11 10:54:26;;;;;;;32.67;22.50;;;;;;;2.11;100.00;100797.56;5017570;28;20120;-62
2022/12/11 10:56:52;;;;;;;36.50;23.70;;;;;;;2.60;100.00;100873.81;5035128;28;20463;-61
2022/12/11 10:59:31;;;;;;;34.47;22.48;;;;;;;2.49;100.00;100839.16;5017362;28;20124;-61
2022/12/11 11:01:57;;;;;;;35.05;24.00;;;;;;;2.71;100.00;100856.50;5034935;28;20501;-61
2022/12/11 11:04:37;;;;;;;31.25;21.20;;;;;;;2.76;100.00;100868.63;5017408;28;20060;-61
2022/12/11 11:07:13;;;;;;;30.20;20.77;;;;;;;2.76;100.00;100868.63;5016876;28;20044;-64
2022/12/11 11:09:39;;;;;;;28.98;19.42;;;;;;;2.94;100.00;100872.09;5034944;28;20033;-62
2022/12/11 11:12:23;;;;;;;29.13;20.42;;;;;;;2.75;100.00;100822.69;5035087;28;20040;-62
2022/12/11 11:15:04;;;;;;;29.77;20.52;;;;;;;3.12;100.00;100864.25;5035057;28;20091;-62
2022/12/11 11:17:31;;;;;;;27.15;18.95;;;;;;;3.26;100.00;100862.50;5034892;28;20120;-60
2022/12/11 11:19:59;;;;;;;25.27;18.25;;;;;;;3.24;100.00;100859.03;5000709;28;20060;-61
2022/12/11 11:22:24;;;;;;;25.13;17.17;;;;;;;3.23;100.00;100854.69;5034631;28;20473;-60
2022/12/11 11:24:55;;;;;;;30.10;19.75;;;;;;;3.19;100.00;100838.22;5017038;28;20040;-60